sensor_id;sensor_type;location;lat;lon;timestamp;P1;durP1;ratioP1;P2;durP2;ratioP2
42036;SDS011;30340;52.004;5.908;2023-05-02T00:01:03;16.02;;;11.15;;
42036;SDS011;30340;52.004;5.908;2023-05-02T00:03:29;18.77;;;12.40;;
42036;SDS011;30340;52.004;5.908;2023-05-02T00:05:56;15.73;;;10.55;;
42036;SDS011;30340;52.004;5.908;2023-05-02T00:08:23;15.02;;;10.25;;
42036;SDS011;30340;52.004;5.908;2023-05-02T00:10:49;16.05;;;11.10;;
42036;SDS011;30340;52.004;5.908;2023-05-02T00:13:14;14.90;;;9.85;;
42036;SDS011;30340;52.004;5.908;2023-05-02T00:15:40;15.48;;;10.48;;
42036;SDS011;30340;52.004;5.908;2023-05-02T00:18:05;14.00;;;9.55;;
42036;SDS011;30340;52.004;5.908;2023-05-02T00:20:31;15.13;;;9.57;;
42036;SDS011;30340;52.004;5.908;2023-05-02T00:22:57;11.60;;;8.77;;
42036;SDS011;30340;52.004;5.908;2023-05-02T00:25:22;11.07;;;8.27;;
42036;SDS011;30340;52.004;5.908;2023-05-02T00:27:48;11.65;;;8.50;;
42036;SDS011;30340;52.004;5.908;2023-05-02T00:30:15;11.77;;;8.23;;
42036;SDS011;30340;52.004;5.908;2023-05-02T00:32:41;10.38;;;7.18;;
42036;SDS011;30340;52.004;5.908;2023-05-02T00:35:06;14.57;;;10.02;;
42036;SDS011;30340;52.004;5.908;2023-05-02T00:37:32;13.13;;;9.07;;
42036;SDS011;30340;52.004;5.908;2023-05-02T00:39:58;12.30;;;7.63;;
42036;SDS011;30340;52.004;5.908;2023-05-02T00:42:23;10.98;;;7.93;;
42036;SDS011;30340;52.004;5.908;2023-05-02T00:44:49;13.77;;;9.52;;
42036;SDS011;30340;52.004;5.908;2023-05-02T00:47:15;13.73;;;8.75;;
42036;SDS011;30340;52.004;5.908;2023-05-02T00:49:40;13.48;;;8.60;;
42036;SDS011;30340;52.004;5.908;2023-05-02T00:52:06;11.57;;;7.78;;
42036;SDS011;30340;52.004;5.908;2023-05-02T00:54:32;12.27;;;8.75;;
42036;SDS011;30340;52.004;5.908;2023-05-02T00:56:58;14.20;;;8.82;;
42036;SDS011;30340;52.004;5.908;2023-05-02T00:59:24;12.95;;;9.10;;
42036;SDS011;30340;52.004;5.908;2023-05-02T01:09:51;12.75;;;8.00;;
42036;SDS011;30340;52.004;5.908;2023-05-02T01:12:30;12.20;;;8.23;;
42036;SDS011;30340;52.004;5.908;2023-05-02T01:15:06;12.90;;;8.23;;
42036;SDS011;30340;52.004;5.908;2023-05-02T01:17:35;12.05;;;7.95;;
42036;SDS011;30340;52.004;5.908;2023-05-02T01:20:06;11.93;;;7.88;;
42036;SDS011;30340;52.004;5.908;2023-05-02T01:22:36;11.05;;;7.68;;
42036;SDS011;30340;52.004;5.908;2023-05-02T01:28:10;12.57;;;8.77;;
42036;SDS011;30340;52.004;5.908;2023-05-02T01:30:59;13.85;;;8.85;;
42036;SDS011;30340;52.004;5.908;2023-05-02T01:33:27;15.18;;;9.75;;
42036;SDS011;30340;52.004;5.908;2023-05-02T01:35:54;12.52;;;9.05;;
42036;SDS011;30340;52.004;5.908;2023-05-02T01:38:21;15.27;;;9.20;;
42036;SDS011;30340;52.004;5.908;2023-05-02T01:40:49;16.98;;;9.57;;
42036;SDS011;30340;52.004;5.908;2023-05-02T01:43:16;15.63;;;9.65;;
42036;SDS011;30340;52.004;5.908;2023-05-02T01:45:44;16.25;;;10.38;;
42036;SDS011;30340;52.004;5.908;2023-05-02T01:48:14;14.75;;;9.10;;
42036;SDS011;30340;52.004;5.908;2023-05-02T01:50:42;15.45;;;10.30;;
42036;SDS011;30340;52.004;5.908;2023-05-02T01:53:10;14.85;;;9.70;;
42036;SDS011;30340;52.004;5.908;2023-05-02T01:55:37;14.55;;;9.30;;
42036;SDS011;30340;52.004;5.908;2023-05-02T01:58:09;13.32;;;8.50;;
42036;SDS011;30340;52.004;5.908;2023-05-02T02:00:37;15.30;;;10.15;;
42036;SDS011;30340;52.004;5.908;2023-05-02T02:03:04;13.52;;;8.13;;
42036;SDS011;30340;52.004;5.908;2023-05-02T02:05:31;13.07;;;7.45;;
42036;SDS011;30340;52.004;5.908;2023-05-02T02:07:58;11.45;;;8.05;;
42036;SDS011;30340;52.004;5.908;2023-05-02T02:10:24;11.30;;;7.70;;
42036;SDS011;30340;52.004;5.908;2023-05-02T02:12:54;13.25;;;7.88;;
42036;SDS011;30340;52.004;5.908;2023-05-02T02:15:44;12.07;;;7.47;;
42036;SDS011;30340;52.004;5.908;2023-05-02T02:18:13;11.10;;;6.82;;
42036;SDS011;30340;52.004;5.908;2023-05-02T02:20:45;9.85;;;5.80;;
42036;SDS011;30340;52.004;5.908;2023-05-02T02:23:14;8.30;;;4.78;;
42036;SDS011;30340;52.004;5.908;2023-05-02T02:25:41;10.68;;;4.78;;
42036;SDS011;30340;52.004;5.908;2023-05-02T02:28:08;9.32;;;4.40;;
42036;SDS011;30340;52.004;5.908;2023-05-02T02:30:33;12.30;;;4.68;;
42036;SDS011;30340;52.004;5.908;2023-05-02T02:32:59;10.98;;;4.15;;
42036;SDS011;30340;52.004;5.908;2023-05-02T02:35:26;7.93;;;3.75;;
42036;SDS011;30340;52.004;5.908;2023-05-02T02:38:00;10.82;;;3.38;;
42036;SDS011;30340;52.004;5.908;2023-05-02T02:46:50;6.35;;;2.40;;
42036;SDS011;30340;52.004;5.908;2023-05-02T02:55:03;5.70;;;2.45;;
42036;SDS011;30340;52.004;5.908;2023-05-02T03:00:47;7.00;;;2.67;;
42036;SDS011;30340;52.004;5.908;2023-05-02T03:03:13;4.97;;;2.17;;
42036;SDS011;30340;52.004;5.908;2023-05-02T03:05:41;7.10;;;2.40;;
42036;SDS011;30340;52.004;5.908;2023-05-02T03:08:07;8.88;;;3.10;;
42036;SDS011;30340;52.004;5.908;2023-05-02T03:10:33;6.50;;;2.45;;
42036;SDS011;30340;52.004;5.908;2023-05-02T03:12:59;8.25;;;3.05;;
42036;SDS011;30340;52.004;5.908;2023-05-02T03:18:12;7.90;;;2.50;;
42036;SDS011;30340;52.004;5.908;2023-05-02T03:20:37;7.95;;;2.70;;
42036;SDS011;30340;52.004;5.908;2023-05-02T03:23:03;7.82;;;2.42;;
42036;SDS011;30340;52.004;5.908;2023-05-02T03:25:29;4.18;;;2.20;;
42036;SDS011;30340;52.004;5.908;2023-05-02T03:27:55;7.85;;;2.70;;
42036;SDS011;30340;52.004;5.908;2023-05-02T03:30:21;8.10;;;2.17;;
42036;SDS011;30340;52.004;5.908;2023-05-02T03:32:47;7.97;;;2.53;;
42036;SDS011;30340;52.004;5.908;2023-05-02T03:35:13;4.88;;;2.00;;
42036;SDS011;30340;52.004;5.908;2023-05-02T03:37:39;7.28;;;2.30;;
42036;SDS011;30340;52.004;5.908;2023-05-02T03:40:04;4.85;;;1.95;;
42036;SDS011;30340;52.004;5.908;2023-05-02T03:42:33;6.55;;;2.65;;
42036;SDS011;30340;52.004;5.908;2023-05-02T03:45:03;9.05;;;2.25;;
42036;SDS011;30340;52.004;5.908;2023-05-02T03:47:30;4.25;;;2.05;;
42036;SDS011;30340;52.004;5.908;2023-05-02T03:49:55;7.68;;;2.50;;
42036;SDS011;30340;52.004;5.908;2023-05-02T03:52:21;5.97;;;2.30;;
42036;SDS011;30340;52.004;5.908;2023-05-02T03:54:48;7.68;;;2.78;;
42036;SDS011;30340;52.004;5.908;2023-05-02T03:57:14;5.38;;;1.92;;
42036;SDS011;30340;52.004;5.908;2023-05-02T03:59:39;3.83;;;1.83;;
42036;SDS011;30340;52.004;5.908;2023-05-02T04:02:07;7.60;;;2.33;;
42036;SDS011;30340;52.004;5.908;2023-05-02T04:04:32;5.55;;;2.38;;
42036;SDS011;30340;52.004;5.908;2023-05-02T04:06:58;6.20;;;2.30;;
42036;SDS011;30340;52.004;5.908;2023-05-02T04:09:24;6.60;;;2.13;;
42036;SDS011;30340;52.004;5.908;2023-05-02T04:11:50;5.38;;;2.20;;
42036;SDS011;30340;52.004;5.908;2023-05-02T04:14:16;5.55;;;2.15;;
42036;SDS011;30340;52.004;5.908;2023-05-02T04:16:46;6.55;;;2.28;;
42036;SDS011;30340;52.004;5.908;2023-05-02T04:19:12;5.05;;;2.10;;
42036;SDS011;30340;52.004;5.908;2023-05-02T04:21:38;6.00;;;1.98;;
42036;SDS011;30340;52.004;5.908;2023-05-02T04:24:04;5.68;;;2.47;;
42036;SDS011;30340;52.004;5.908;2023-05-02T04:26:29;7.82;;;2.00;;
42036;SDS011;30340;52.004;5.908;2023-05-02T04:28:55;4.75;;;1.92;;
42036;SDS011;30340;52.004;5.908;2023-05-02T04:31:20;7.30;;;2.40;;
42036;SDS011;30340;52.004;5.908;2023-05-02T04:33:46;5.97;;;1.90;;
42036;SDS011;30340;52.004;5.908;2023-05-02T04:36:13;4.55;;;1.80;;
42036;SDS011;30340;52.004;5.908;2023-05-02T04:38:38;7.53;;;2.10;;
42036;SDS011;30340;52.004;5.908;2023-05-02T04:41:04;7.68;;;2.10;;
42036;SDS011;30340;52.004;5.908;2023-05-02T04:43:30;4.13;;;1.73;;
42036;SDS011;30340;52.004;5.908;2023-05-02T04:45:56;7.22;;;2.10;;
42036;SDS011;30340;52.004;5.908;2023-05-02T04:48:22;5.03;;;2.08;;
42036;SDS011;30340;52.004;5.908;2023-05-02T04:50:49;5.82;;;2.03;;
42036;SDS011;30340;52.004;5.908;2023-05-02T04:53:17;5.90;;;2.22;;
42036;SDS011;30340;52.004;5.908;2023-05-02T04:55:43;6.05;;;1.98;;
42036;SDS011;30340;52.004;5.908;2023-05-02T04:58:09;5.97;;;1.80;;
42036;SDS011;30340;52.004;5.908;2023-05-02T05:00:35;3.65;;;1.70;;
42036;SDS011;30340;52.004;5.908;2023-05-02T05:03:00;7.32;;;2.33;;
42036;SDS011;30340;52.004;5.908;2023-05-02T05:05:26;6.38;;;1.90;;
42036;SDS011;30340;52.004;5.908;2023-05-02T05:07:51;6.00;;;2.00;;
42036;SDS011;30340;52.004;5.908;2023-05-02T05:10:17;5.55;;;1.80;;
42036;SDS011;30340;52.004;5.908;2023-05-02T05:12:43;5.45;;;1.90;;
42036;SDS011;30340;52.004;5.908;2023-05-02T05:15:08;4.22;;;1.80;;
42036;SDS011;30340;52.004;5.908;2023-05-02T05:17:35;5.43;;;2.05;;
42036;SDS011;30340;52.004;5.908;2023-05-02T05:20:01;5.72;;;2.00;;
42036;SDS011;30340;52.004;5.908;2023-05-02T05:22:27;4.15;;;1.65;;
42036;SDS011;30340;52.004;5.908;2023-05-02T05:24:53;6.88;;;2.10;;
42036;SDS011;30340;52.004;5.908;2023-05-02T05:27:19;4.38;;;2.10;;
42036;SDS011;30340;52.004;5.908;2023-05-02T05:29:45;5.78;;;2.00;;
42036;SDS011;30340;52.004;5.908;2023-05-02T05:32:11;5.32;;;2.10;;
42036;SDS011;30340;52.004;5.908;2023-05-02T05:34:36;5.05;;;1.73;;
42036;SDS011;30340;52.004;5.908;2023-05-02T05:37:02;7.55;;;2.30;;
42036;SDS011;30340;52.004;5.908;2023-05-02T05:39:27;5.63;;;2.00;;
42036;SDS011;30340;52.004;5.908;2023-05-02T05:41:53;5.20;;;2.22;;
42036;SDS011;30340;52.004;5.908;2023-05-02T05:44:19;7.72;;;2.55;;
42036;SDS011;30340;52.004;5.908;2023-05-02T05:46:46;4.72;;;1.90;;
42036;SDS011;30340;52.004;5.908;2023-05-02T05:49:11;7.07;;;2.15;;
42036;SDS011;30340;52.004;5.908;2023-05-02T05:51:39;7.70;;;2.10;;
42036;SDS011;30340;52.004;5.908;2023-05-02T05:54:05;5.07;;;2.10;;
42036;SDS011;30340;52.004;5.908;2023-05-02T05:56:31;4.53;;;2.00;;
42036;SDS011;30340;52.004;5.908;2023-05-02T05:58:57;6.20;;;2.30;;
42036;SDS011;30340;52.004;5.908;2023-05-02T06:01:22;7.18;;;2.47;;
42036;SDS011;30340;52.004;5.908;2023-05-02T06:03:48;4.65;;;1.88;;
42036;SDS011;30340;52.004;5.908;2023-05-02T06:06:13;5.38;;;1.95;;
42036;SDS011;30340;52.004;5.908;2023-05-02T06:08:39;7.72;;;2.42;;
42036;SDS011;30340;52.004;5.908;2023-05-02T06:11:08;8.90;;;3.88;;
42036;SDS011;30340;52.004;5.908;2023-05-02T06:13:35;10.52;;;2.92;;
42036;SDS011;30340;52.004;5.908;2023-05-02T06:16:01;7.68;;;2.90;;
42036;SDS011;30340;52.004;5.908;2023-05-02T06:18:27;8.25;;;2.60;;
42036;SDS011;30340;52.004;5.908;2023-05-02T06:20:53;6.43;;;2.38;;
42036;SDS011;30340;52.004;5.908;2023-05-02T06:23:18;9.23;;;2.90;;
42036;SDS011;30340;52.004;5.908;2023-05-02T06:25:44;8.32;;;2.80;;
42036;SDS011;30340;52.004;5.908;2023-05-02T06:28:09;13.23;;;2.90;;
42036;SDS011;30340;52.004;5.908;2023-05-02T06:30:35;9.07;;;3.08;;
42036;SDS011;30340;52.004;5.908;2023-05-02T06:33:02;8.88;;;2.83;;
42036;SDS011;30340;52.004;5.908;2023-05-02T06:35:28;10.35;;;2.90;;
42036;SDS011;30340;52.004;5.908;2023-05-02T06:37:54;9.00;;;2.92;;
42036;SDS011;30340;52.004;5.908;2023-05-02T06:40:19;8.73;;;3.30;;
42036;SDS011;30340;52.004;5.908;2023-05-02T06:42:45;10.02;;;3.05;;
42036;SDS011;30340;52.004;5.908;2023-05-02T06:45:11;12.10;;;2.78;;
42036;SDS011;30340;52.004;5.908;2023-05-02T06:47:36;8.07;;;2.75;;
42036;SDS011;30340;52.004;5.908;2023-05-02T06:50:02;8.43;;;2.90;;
42036;SDS011;30340;52.004;5.908;2023-05-02T06:52:27;7.70;;;2.78;;
42036;SDS011;30340;52.004;5.908;2023-05-02T06:54:53;9.15;;;3.05;;
42036;SDS011;30340;52.004;5.908;2023-05-02T06:57:18;9.70;;;2.88;;
42036;SDS011;30340;52.004;5.908;2023-05-02T06:59:44;9.68;;;2.88;;
42036;SDS011;30340;52.004;5.908;2023-05-02T07:02:09;8.98;;;3.05;;
42036;SDS011;30340;52.004;5.908;2023-05-02T07:04:35;8.82;;;2.85;;
42036;SDS011;30340;52.004;5.908;2023-05-02T07:07:01;5.97;;;2.30;;
42036;SDS011;30340;52.004;5.908;2023-05-02T07:09:27;7.35;;;2.83;;
42036;SDS011;30340;52.004;5.908;2023-05-02T07:11:53;6.30;;;2.30;;
42036;SDS011;30340;52.004;5.908;2023-05-02T07:14:18;7.55;;;2.33;;
42036;SDS011;30340;52.004;5.908;2023-05-02T07:16:44;7.22;;;2.50;;
42036;SDS011;30340;52.004;5.908;2023-05-02T07:19:10;6.43;;;2.30;;
42036;SDS011;30340;52.004;5.908;2023-05-02T07:21:35;5.70;;;2.00;;
42036;SDS011;30340;52.004;5.908;2023-05-02T07:24:01;6.13;;;2.35;;
42036;SDS011;30340;52.004;5.908;2023-05-02T07:26:27;6.15;;;1.98;;
42036;SDS011;30340;52.004;5.908;2023-05-02T07:28:54;4.47;;;1.80;;
42036;SDS011;30340;52.004;5.908;2023-05-02T07:31:19;4.50;;;2.17;;
42036;SDS011;30340;52.004;5.908;2023-05-02T07:33:45;4.18;;;1.90;;
42036;SDS011;30340;52.004;5.908;2023-05-02T07:36:10;6.47;;;2.42;;
42036;SDS011;30340;52.004;5.908;2023-05-02T07:38:36;4.70;;;1.90;;
42036;SDS011;30340;52.004;5.908;2023-05-02T07:41:02;5.43;;;1.98;;
42036;SDS011;30340;52.004;5.908;2023-05-02T07:43:27;5.78;;;2.00;;
42036;SDS011;30340;52.004;5.908;2023-05-02T07:45:53;4.65;;;1.98;;
42036;SDS011;30340;52.004;5.908;2023-05-02T07:48:18;5.45;;;1.83;;
42036;SDS011;30340;52.004;5.908;2023-05-02T07:50:44;4.95;;;2.13;;
42036;SDS011;30340;52.004;5.908;2023-05-02T07:53:10;9.80;;;2.33;;
42036;SDS011;30340;52.004;5.908;2023-05-02T07:55:35;4.35;;;2.08;;
42036;SDS011;30340;52.004;5.908;2023-05-02T07:58:01;6.40;;;2.30;;
42036;SDS011;30340;52.004;5.908;2023-05-02T08:00:27;5.40;;;2.30;;
42036;SDS011;30340;52.004;5.908;2023-05-02T08:02:54;8.05;;;2.70;;
42036;SDS011;30340;52.004;5.908;2023-05-02T08:05:20;5.45;;;2.47;;
42036;SDS011;30340;52.004;5.908;2023-05-02T08:07:45;4.95;;;2.10;;
42036;SDS011;30340;52.004;5.908;2023-05-02T08:10:11;6.32;;;2.03;;
42036;SDS011;30340;52.004;5.908;2023-05-02T08:12:40;7.45;;;2.53;;
42036;SDS011;30340;52.004;5.908;2023-05-02T08:15:07;6.53;;;2.35;;
42036;SDS011;30340;52.004;5.908;2023-05-02T08:17:35;4.50;;;2.03;;
42036;SDS011;30340;52.004;5.908;2023-05-02T08:20:01;7.45;;;2.20;;
42036;SDS011;30340;52.004;5.908;2023-05-02T08:22:26;4.28;;;1.70;;
42036;SDS011;30340;52.004;5.908;2023-05-02T08:24:52;3.63;;;1.65;;
42036;SDS011;30340;52.004;5.908;2023-05-02T08:27:17;4.93;;;2.15;;
42036;SDS011;30340;52.004;5.908;2023-05-02T08:29:43;3.97;;;1.65;;
42036;SDS011;30340;52.004;5.908;2023-05-02T08:32:08;3.97;;;1.58;;
42036;SDS011;30340;52.004;5.908;2023-05-02T08:34:34;4.40;;;1.70;;
42036;SDS011;30340;52.004;5.908;2023-05-02T08:37:00;3.95;;;1.65;;
42036;SDS011;30340;52.004;5.908;2023-05-02T08:39:26;3.50;;;1.60;;
42036;SDS011;30340;52.004;5.908;2023-05-02T08:41:51;4.65;;;1.40;;
42036;SDS011;30340;52.004;5.908;2023-05-02T08:44:17;4.00;;;1.92;;
42036;SDS011;30340;52.004;5.908;2023-05-02T08:46:43;7.47;;;2.13;;
42036;SDS011;30340;52.004;5.908;2023-05-02T08:49:09;4.50;;;2.00;;
42036;SDS011;30340;52.004;5.908;2023-05-02T08:51:35;4.38;;;1.85;;
42036;SDS011;30340;52.004;5.908;2023-05-02T08:54:02;3.70;;;1.55;;
42036;SDS011;30340;52.004;5.908;2023-05-02T08:56:31;3.25;;;1.60;;
42036;SDS011;30340;52.004;5.908;2023-05-02T08:58:56;4.18;;;1.83;;
42036;SDS011;30340;52.004;5.908;2023-05-02T09:01:22;5.45;;;1.75;;
42036;SDS011;30340;52.004;5.908;2023-05-02T09:03:51;3.80;;;1.95;;
42036;SDS011;30340;52.004;5.908;2023-05-02T09:06:19;4.57;;;1.58;;
42036;SDS011;30340;52.004;5.908;2023-05-02T09:08:46;4.47;;;1.70;;
42036;SDS011;30340;52.004;5.908;2023-05-02T09:11:13;3.25;;;1.60;;
42036;SDS011;30340;52.004;5.908;2023-05-02T09:13:43;5.57;;;1.75;;
42036;SDS011;30340;52.004;5.908;2023-05-02T09:16:10;4.75;;;1.70;;
42036;SDS011;30340;52.004;5.908;2023-05-02T09:18:47;3.25;;;1.67;;
42036;SDS011;30340;52.004;5.908;2023-05-02T09:21:15;3.97;;;1.75;;
42036;SDS011;30340;52.004;5.908;2023-05-02T09:23:45;5.85;;;1.80;;
42036;SDS011;30340;52.004;5.908;2023-05-02T09:26:16;4.38;;;1.70;;
42036;SDS011;30340;52.004;5.908;2023-05-02T09:28:54;4.78;;;2.00;;
42036;SDS011;30340;52.004;5.908;2023-05-02T09:31:22;4.13;;;1.80;;
42036;SDS011;30340;52.004;5.908;2023-05-02T09:34:06;3.90;;;1.70;;
42036;SDS011;30340;52.004;5.908;2023-05-02T09:36:38;2.72;;;1.60;;
42036;SDS011;30340;52.004;5.908;2023-05-02T09:39:12;2.55;;;1.70;;
42036;SDS011;30340;52.004;5.908;2023-05-02T09:41:42;4.82;;;1.60;;
42036;SDS011;30340;52.004;5.908;2023-05-02T09:44:16;6.20;;;1.77;;
42036;SDS011;30340;52.004;5.908;2023-05-02T09:46:44;4.40;;;1.92;;
42036;SDS011;30340;52.004;5.908;2023-05-02T09:49:11;5.57;;;1.80;;
42036;SDS011;30340;52.004;5.908;2023-05-02T09:51:38;3.53;;;1.48;;
42036;SDS011;30340;52.004;5.908;2023-05-02T09:54:04;3.13;;;1.67;;
42036;SDS011;30340;52.004;5.908;2023-05-02T09:56:30;4.22;;;1.67;;
42036;SDS011;30340;52.004;5.908;2023-05-02T09:59:12;3.35;;;1.60;;
42036;SDS011;30340;52.004;5.908;2023-05-02T10:01:41;5.55;;;1.90;;
42036;SDS011;30340;52.004;5.908;2023-05-02T10:04:13;3.67;;;1.95;;
42036;SDS011;30340;52.004;5.908;2023-05-02T10:06:43;2.97;;;1.58;;
42036;SDS011;30340;52.004;5.908;2023-05-02T10:09:09;3.28;;;1.42;;
42036;SDS011;30340;52.004;5.908;2023-05-02T10:11:37;2.10;;;1.50;;
42036;SDS011;30340;52.004;5.908;2023-05-02T10:14:10;3.47;;;1.42;;
42036;SDS011;30340;52.004;5.908;2023-05-02T10:16:41;2.75;;;1.33;;
42036;SDS011;30340;52.004;5.908;2023-05-02T10:19:23;2.83;;;1.50;;
42036;SDS011;30340;52.004;5.908;2023-05-02T10:21:53;3.00;;;1.40;;
42036;SDS011;30340;52.004;5.908;2023-05-02T10:24:21;2.50;;;1.40;;
42036;SDS011;30340;52.004;5.908;2023-05-02T10:26:48;4.88;;;1.85;;
42036;SDS011;30340;52.004;5.908;2023-05-02T10:29:14;4.35;;;1.63;;
42036;SDS011;30340;52.004;5.908;2023-05-02T10:31:40;6.70;;;1.85;;
42036;SDS011;30340;52.004;5.908;2023-05-02T10:34:08;5.15;;;1.75;;
42036;SDS011;30340;52.004;5.908;2023-05-02T10:36:35;5.82;;;2.10;;
42036;SDS011;30340;52.004;5.908;2023-05-02T10:39:01;3.50;;;1.90;;
42036;SDS011;30340;52.004;5.908;2023-05-02T10:41:28;3.35;;;1.80;;
42036;SDS011;30340;52.004;5.908;2023-05-02T10:43:55;6.00;;;1.70;;
42036;SDS011;30340;52.004;5.908;2023-05-02T10:46:35;2.63;;;1.50;;
42036;SDS011;30340;52.004;5.908;2023-05-02T10:49:01;4.53;;;1.80;;
42036;SDS011;30340;52.004;5.908;2023-05-02T10:51:35;3.17;;;1.75;;
42036;SDS011;30340;52.004;5.908;2023-05-02T10:54:21;3.83;;;1.70;;
42036;SDS011;30340;52.004;5.908;2023-05-02T10:57:04;3.60;;;1.70;;
42036;SDS011;30340;52.004;5.908;2023-05-02T11:02:48;4.03;;;1.92;;
42036;SDS011;30340;52.004;5.908;2023-05-02T11:07:26;2.80;;;1.40;;
42036;SDS011;30340;52.004;5.908;2023-05-02T11:09:52;3.72;;;1.90;;
42036;SDS011;30340;52.004;5.908;2023-05-02T11:15:14;5.00;;;1.98;;
42036;SDS011;30340;52.004;5.908;2023-05-02T11:18:00;4.35;;;1.67;;
42036;SDS011;30340;52.004;5.908;2023-05-02T11:20:31;3.30;;;1.40;;
42036;SDS011;30340;52.004;5.908;2023-05-02T11:22:58;4.72;;;1.80;;
42036;SDS011;30340;52.004;5.908;2023-05-02T11:25:40;5.15;;;1.60;;
42036;SDS011;30340;52.004;5.908;2023-05-02T11:31:05;5.70;;;2.20;;
42036;SDS011;30340;52.004;5.908;2023-05-02T11:33:31;5.05;;;2.00;;
42036;SDS011;30340;52.004;5.908;2023-05-02T11:35:57;6.20;;;2.13;;
42036;SDS011;30340;52.004;5.908;2023-05-02T11:38:24;5.75;;;1.75;;
42036;SDS011;30340;52.004;5.908;2023-05-02T11:43:21;4.85;;;1.90;;
42036;SDS011;30340;52.004;5.908;2023-05-02T11:45:47;5.45;;;2.00;;
42036;SDS011;30340;52.004;5.908;2023-05-02T11:48:14;4.85;;;1.90;;
42036;SDS011;30340;52.004;5.908;2023-05-02T11:50:42;5.10;;;2.03;;
42036;SDS011;30340;52.004;5.908;2023-05-02T11:53:12;5.47;;;2.30;;
42036;SDS011;30340;52.004;5.908;2023-05-02T11:55:44;6.00;;;1.85;;
42036;SDS011;30340;52.004;5.908;2023-05-02T11:58:14;5.03;;;1.95;;
42036;SDS011;30340;52.004;5.908;2023-05-02T12:00:41;4.72;;;2.10;;
42036;SDS011;30340;52.004;5.908;2023-05-02T12:05:53;4.38;;;1.83;;
42036;SDS011;30340;52.004;5.908;2023-05-02T12:08:20;5.60;;;2.00;;
42036;SDS011;30340;52.004;5.908;2023-05-02T12:10:50;7.07;;;2.70;;
42036;SDS011;30340;52.004;5.908;2023-05-02T12:13:17;4.40;;;2.10;;
42036;SDS011;30340;52.004;5.908;2023-05-02T12:15:43;4.65;;;1.92;;
42036;SDS011;30340;52.004;5.908;2023-05-02T12:18:09;7.53;;;2.10;;
42036;SDS011;30340;52.004;5.908;2023-05-02T12:20:35;5.25;;;2.10;;
42036;SDS011;30340;52.004;5.908;2023-05-02T12:23:03;6.13;;;2.30;;
42036;SDS011;30340;52.004;5.908;2023-05-02T12:25:31;6.40;;;2.00;;
42036;SDS011;30340;52.004;5.908;2023-05-02T12:27:57;4.82;;;2.15;;
42036;SDS011;30340;52.004;5.908;2023-05-02T12:30:27;4.70;;;2.17;;
42036;SDS011;30340;52.004;5.908;2023-05-02T12:32:57;4.55;;;1.88;;
42036;SDS011;30340;52.004;5.908;2023-05-02T12:35:23;7.75;;;2.20;;
42036;SDS011;30340;52.004;5.908;2023-05-02T12:37:49;4.43;;;1.90;;
42036;SDS011;30340;52.004;5.908;2023-05-02T12:40:16;4.75;;;2.00;;
42036;SDS011;30340;52.004;5.908;2023-05-02T12:42:41;4.82;;;1.83;;
42036;SDS011;30340;52.004;5.908;2023-05-02T12:45:16;7.40;;;2.20;;
42036;SDS011;30340;52.004;5.908;2023-05-02T12:47:45;5.10;;;2.10;;
42036;SDS011;30340;52.004;5.908;2023-05-02T12:50:11;6.13;;;2.35;;
42036;SDS011;30340;52.004;5.908;2023-05-02T12:52:49;4.22;;;2.30;;
42036;SDS011;30340;52.004;5.908;2023-05-02T12:55:24;5.70;;;2.35;;
42036;SDS011;30340;52.004;5.908;2023-05-02T12:58:01;5.60;;;2.25;;
42036;SDS011;30340;52.004;5.908;2023-05-02T13:00:32;4.38;;;2.10;;
42036;SDS011;30340;52.004;5.908;2023-05-02T13:03:02;5.47;;;2.40;;
42036;SDS011;30340;52.004;5.908;2023-05-02T13:05:29;5.22;;;2.17;;
42036;SDS011;30340;52.004;5.908;2023-05-02T13:07:55;6.28;;;2.38;;
42036;SDS011;30340;52.004;5.908;2023-05-02T13:10:21;4.43;;;2.47;;
42036;SDS011;30340;52.004;5.908;2023-05-02T13:12:47;4.65;;;2.08;;
42036;SDS011;30340;52.004;5.908;2023-05-02T13:15:13;5.80;;;2.33;;
42036;SDS011;30340;52.004;5.908;2023-05-02T13:17:39;4.97;;;2.40;;
42036;SDS011;30340;52.004;5.908;2023-05-02T13:20:05;4.97;;;2.30;;
42036;SDS011;30340;52.004;5.908;2023-05-02T13:22:32;5.63;;;2.30;;
42036;SDS011;30340;52.004;5.908;2023-05-02T13:24:57;4.18;;;2.15;;
42036;SDS011;30340;52.004;5.908;2023-05-02T13:27:23;5.38;;;2.22;;
42036;SDS011;30340;52.004;5.908;2023-05-02T13:29:49;6.80;;;2.10;;
42036;SDS011;30340;52.004;5.908;2023-05-02T13:32:15;6.32;;;2.20;;
42036;SDS011;30340;52.004;5.908;2023-05-02T13:34:41;5.00;;;2.17;;
42036;SDS011;30340;52.004;5.908;2023-05-02T13:37:07;5.95;;;2.38;;
42036;SDS011;30340;52.004;5.908;2023-05-02T13:39:33;5.57;;;2.50;;
42036;SDS011;30340;52.004;5.908;2023-05-02T13:41:59;6.53;;;2.67;;
42036;SDS011;30340;52.004;5.908;2023-05-02T13:44:28;5.50;;;2.20;;
42036;SDS011;30340;52.004;5.908;2023-05-02T13:46:54;6.28;;;2.00;;
42036;SDS011;30340;52.004;5.908;2023-05-02T13:49:20;7.82;;;2.38;;
42036;SDS011;30340;52.004;5.908;2023-05-02T13:51:46;3.63;;;1.77;;
42036;SDS011;30340;52.004;5.908;2023-05-02T13:54:12;5.90;;;2.50;;
42036;SDS011;30340;52.004;5.908;2023-05-02T13:56:38;5.45;;;2.03;;
42036;SDS011;30340;52.004;5.908;2023-05-02T13:59:04;5.03;;;2.00;;
42036;SDS011;30340;52.004;5.908;2023-05-02T14:01:30;2.95;;;1.90;;
42036;SDS011;30340;52.004;5.908;2023-05-02T14:03:55;4.28;;;1.90;;
42036;SDS011;30340;52.004;5.908;2023-05-02T14:06:21;6.72;;;2.60;;
42036;SDS011;30340;52.004;5.908;2023-05-02T14:08:46;3.70;;;1.98;;
42036;SDS011;30340;52.004;5.908;2023-05-02T14:11:12;2.70;;;1.67;;
42036;SDS011;30340;52.004;5.908;2023-05-02T14:13:37;5.30;;;2.20;;
42036;SDS011;30340;52.004;5.908;2023-05-02T14:16:03;6.65;;;2.42;;
42036;SDS011;30340;52.004;5.908;2023-05-02T14:18:29;5.35;;;2.28;;
42036;SDS011;30340;52.004;5.908;2023-05-02T14:20:55;6.32;;;2.30;;
42036;SDS011;30340;52.004;5.908;2023-05-02T14:23:23;6.53;;;2.50;;
42036;SDS011;30340;52.004;5.908;2023-05-02T14:25:50;6.22;;;2.42;;
42036;SDS011;30340;52.004;5.908;2023-05-02T14:28:15;4.95;;;2.40;;
42036;SDS011;30340;52.004;5.908;2023-05-02T14:30:41;5.72;;;2.42;;
42036;SDS011;30340;52.004;5.908;2023-05-02T14:33:06;5.10;;;2.15;;
42036;SDS011;30340;52.004;5.908;2023-05-02T14:35:32;4.47;;;2.20;;
42036;SDS011;30340;52.004;5.908;2023-05-02T14:37:58;4.45;;;1.80;;
42036;SDS011;30340;52.004;5.908;2023-05-02T14:40:23;5.20;;;2.20;;
42036;SDS011;30340;52.004;5.908;2023-05-02T14:42:49;5.10;;;2.22;;
42036;SDS011;30340;52.004;5.908;2023-05-02T14:45:15;6.40;;;2.22;;
42036;SDS011;30340;52.004;5.908;2023-05-02T14:47:40;6.07;;;2.08;;
42036;SDS011;30340;52.004;5.908;2023-05-02T14:50:06;4.20;;;2.05;;
42036;SDS011;30340;52.004;5.908;2023-05-02T14:52:32;5.18;;;2.20;;
42036;SDS011;30340;52.004;5.908;2023-05-02T14:54:58;6.68;;;2.33;;
42036;SDS011;30340;52.004;5.908;2023-05-02T14:57:24;5.18;;;2.40;;
42036;SDS011;30340;52.004;5.908;2023-05-02T14:59:50;5.90;;;2.25;;
42036;SDS011;30340;52.004;5.908;2023-05-02T15:02:15;4.30;;;1.83;;
42036;SDS011;30340;52.004;5.908;2023-05-02T15:04:41;5.00;;;2.17;;
42036;SDS011;30340;52.004;5.908;2023-05-02T15:07:06;6.65;;;2.20;;
42036;SDS011;30340;52.004;5.908;2023-05-02T15:09:32;5.72;;;2.10;;
42036;SDS011;30340;52.004;5.908;2023-05-02T15:11:57;3.78;;;2.10;;
42036;SDS011;30340;52.004;5.908;2023-05-02T15:14:23;4.22;;;1.90;;
42036;SDS011;30340;52.004;5.908;2023-05-02T15:16:48;6.20;;;2.15;;
42036;SDS011;30340;52.004;5.908;2023-05-02T15:19:14;4.18;;;2.08;;
42036;SDS011;30340;52.004;5.908;2023-05-02T15:21:40;5.38;;;2.03;;
42036;SDS011;30340;52.004;5.908;2023-05-02T15:24:05;4.38;;;2.20;;
42036;SDS011;30340;52.004;5.908;2023-05-02T15:26:31;5.40;;;2.10;;
42036;SDS011;30340;52.004;5.908;2023-05-02T15:28:57;7.30;;;2.40;;
42036;SDS011;30340;52.004;5.908;2023-05-02T15:31:23;5.00;;;1.90;;